Time;durP1;ratioP1;P1;durP2;ratioP2;P2;SDS_P1;SDS_P2;PMS_P1;PMS_P2;Temp;Humidity;BMP_temperature;BMP_pressure;BME280_temperature;BME280_humidity;BME280_pressure;Samples;Min_cycle;Max_cycle;Signal;HPM_P1;HPM_P2
2022/12/22 03:29:44;;;;;;;0.20;0.10;;;14.20;99.90;;;;;;20895061;28;20454;-79
2022/12/22 03:39:48;;;;;;;0.20;0.10;;;13.80;99.90;;;;;;20812733;28;20405;-79
2022/12/22 03:49:53;;;;;;;0.20;0.00;;;13.50;99.90;;;;;;20795596;28;20609;-81
2022/12/22 03:59:57;;;;;;;0.20;0.10;;;14.10;99.90;;;;;;20800589;28;20400;-79
2022/12/22 04:20:26;;;;;;;0.20;0.10;;;13.30;99.90;;;;;;20794739;28;20404;-81
2022/12/22 04:30:31;;;;;;;0.20;0.10;;;13.20;99.90;;;;;;20794347;28;20402;-82
2022/12/22 04:40:35;;;;;;;0.20;0.10;;;13.30;99.90;;;;;;20898681;28;20881;-80
2022/12/22 04:50:40;;;;;;;0.20;0.00;;;13.30;99.90;;;;;;20890957;28;20798;-83
2022/12/22 05:00:44;;;;;;;0.20;0.10;;;13.30;99.90;;;;;;20890123;28;20403;-80
2022/12/22 05:10:49;;;;;;;0.20;0.10;;;13.60;99.90;;;;;;20902089;28;20418;-78
2022/12/22 05:20:53;;;;;;;0.20;0.03;;;13.00;99.90;;;;;;20904735;28;20396;-78
2022/12/22 05:31:03;;;;;;;0.20;0.10;;;13.40;99.90;;;;;;20905758;28;20451;-72
2022/12/22 05:41:08;;;;;;;0.20;0.00;;;13.00;99.90;;;;;;20904998;28;20396;-79
2022/12/22 05:51:13;;;;;;;0.20;0.10;;;12.10;99.90;;;;;;20901344;28;20809;-79
2022/12/22 06:01:17;;;;;;;0.20;0.10;;;11.80;99.90;;;;;;20902570;28;20498;-77
2022/12/22 06:11:22;;;;;;;0.20;0.00;;;12.70;99.90;;;;;;20901705;28;20499;-78
2022/12/22 06:21:25;;;;;;;0.20;0.10;;;12.90;99.90;;;;;;20867182;28;20412;-72
2022/12/22 06:31:31;;;;;;;0.20;0.00;;;12.70;99.90;;;;;;20882005;28;20762;-78
2022/12/22 06:51:58;;;;;;;0.20;0.10;;;12.20;99.90;;;;;;20863517;28;20418;-79
2022/12/22 07:02:01;;;;;;;0.20;0.00;;;12.10;99.90;;;;;;20901232;28;20498;-79
2022/12/22 07:12:07;;;;;;;0.20;0.10;;;11.50;99.90;;;;;;20884485;28;20400;-81
2022/12/22 07:22:11;;;;;;;0.20;0.10;;;11.30;99.90;;;;;;20881526;28;20388;-83
2022/12/22 07:32:16;;;;;;;0.20;0.10;;;11.10;99.90;;;;;;20865210;28;20440;-80
2022/12/22 07:52:43;;;;;;;0.20;0.03;;;12.40;99.90;;;;;;20798795;28;20404;-75
2022/12/22 08:02:49;;;;;;;0.20;0.10;;;12.70;99.90;;;;;;20797444;28;20409;-70
2022/12/22 08:12:55;;;;;;;0.20;0.10;;;12.90;99.90;;;;;;20819628;28;20401;-79
2022/12/22 08:22:59;;;;;;;0.20;0.10;;;13.30;99.90;;;;;;20813107;28;20935;-78
2022/12/22 08:33:04;;;;;;;0.20;0.00;;;13.30;99.90;;;;;;20805720;28;20425;-79
2022/12/22 08:43:10;;;;;;;0.20;0.10;;;13.30;99.90;;;;;;20852549;28;20522;-80
2022/12/22 08:53:15;;;;;;;0.20;0.10;;;13.80;99.90;;;;;;20870650;28;20494;-76
2022/12/22 09:03:39;;;;;;;0.20;0.10;;;13.90;99.90;;;;;;20904458;28;21245;-73
2022/12/22 09:13:44;;;;;;;0.20;0.00;;;14.30;99.90;;;;;;20906037;28;20422;-78
2022/12/22 09:23:48;;;;;;;0.20;0.00;;;14.40;99.90;;;;;;20881646;28;20852;-77
2022/12/22 09:33:53;;;;;;;0.20;0.10;;;14.60;99.90;;;;;;20802217;28;20745;-77
2022/12/22 09:44:02;;;;;;;0.20;0.10;;;14.80;99.90;;;;;;20840636;28;20415;-76
2022/12/22 09:54:09;;;;;;;0.20;0.00;;;14.60;99.90;;;;;;20902377;28;20470;-78
2022/12/22 10:04:22;;;;;;;0.20;0.10;;;15.10;99.90;;;;;;20899701;28;20414;-78
2022/12/22 10:14:34;;;;;;;0.20;0.05;;;15.80;99.90;;;;;;20882429;28;20487;-77
2022/12/22 10:24:37;;;;;;;0.20;0.10;;;15.80;99.90;;;;;;20864082;28;20408;-77
2022/12/22 10:34:59;;;;;;;0.20;0.10;;;15.50;99.90;;;;;;20879936;28;20384;-77
2022/12/22 10:45:04;;;;;;;0.20;0.10;;;16.40;99.90;;;;;;20897879;28;20909;-76
2022/12/22 10:55:17;;;;;;;0.20;0.00;;;17.50;99.90;;;;;;20896293;28;20404;-71
2022/12/22 11:05:21;;;;;;;0.20;0.05;;;18.20;99.90;;;;;;20876670;28;20790;-71
2022/12/22 11:15:34;;;;;;;0.20;0.00;;;19.30;99.90;;;;;;20894990;28;20408;-75
2022/12/22 11:25:49;;;;;;;0.20;0.03;;;19.20;99.90;;;;;;20811599;28;20428;-75
2022/12/22 11:35:58;;;;;;;0.20;0.10;;;19.60;99.90;;;;;;20793735;28;20417;-75
2022/12/22 11:46:20;;;;;;;0.20;0.10;;;20.40;99.90;;;;;;20810439;28;20842;-76
2022/12/22 11:56:30;;;;;;;0.20;0.10;;;19.70;99.90;;;;;;20871499;28;20391;-77
2022/12/22 12:06:47;;;;;;;0.20;0.10;;;20.10;99.90;;;;;;20890583;28;20440;-75
2022/12/22 12:16:58;;;;;;;0.20;0.00;;;20.10;99.90;;;;;;20862056;28;20891;-75
2022/12/22 12:27:11;;;;;;;0.20;0.00;;;20.80;99.90;;;;;;20830352;28;20506;-76
2022/12/22 12:37:21;;;;;;;0.20;0.00;;;21.00;99.90;;;;;;20883608;28;20474;-76
2022/12/22 12:47:31;;;;;;;0.20;0.00;;;20.50;99.90;;;;;;20870193;28;20504;-78
2022/12/22 12:57:48;;;;;;;0.20;0.00;;;20.20;99.90;;;;;;20862754;28;21033;-76
2022/12/22 13:08:16;;;;;;;0.20;0.10;;;20.70;99.90;;;;;;20887688;28;20408;-74
2022/12/22 13:18:43;;;;;;;0.20;0.10;;;20.90;99.90;;;;;;20881631;28;20416;-75
2022/12/22 13:28:57;;;;;;;0.20;0.10;;;20.90;99.90;;;;;;20820304;28;20413;-74
2022/12/22 13:39:05;;;;;;;0.20;0.08;;;21.10;99.90;;;;;;20803390;28;20861;-75
2022/12/22 13:49:13;;;;;;;0.20;0.00;;;20.60;99.90;;;;;;20802072;28;20421;-75
2022/12/22 13:59:42;;;;;;;0.20;0.00;;;21.50;99.90;;;;;;20801502;28;20799;-76
2022/12/22 14:09:47;;;;;;;0.20;0.00;;;20.80;99.90;;;;;;20798445;28;20950;-77
2022/12/22 14:19:55;;;;;;;0.20;0.00;;;20.90;99.90;;;;;;20814089;28;20394;-76
2022/12/22 14:30:00;;;;;;;0.20;0.00;;;21.30;99.90;;;;;;20828713;28;20405;-74
2022/12/22 14:40:13;;;;;;;0.20;0.00;;;21.20;99.90;;;;;;20811706;28;20406;-76
2022/12/22 14:50:18;;;;;;;0.20;0.10;;;20.90;99.90;;;;;;20853489;28;20420;-75
2022/12/22 15:00:35;;;;;;;0.20;0.05;;;20.00;99.90;;;;;;20855469;28;21124;-77
2022/12/22 15:10:44;;;;;;;0.20;0.00;;;19.70;99.90;;;;;;20873605;28;20436;-81
2022/12/22 15:20:49;;;;;;;0.20;0.00;;;19.70;99.90;;;;;;20830696;28;20398;-79
2022/12/22 15:30:53;;;;;;;0.20;0.10;;;19.40;99.90;;;;;;20791734;28;20428;-78
2022/12/22 15:40:58;;;;;;;0.20;0.00;;;20.40;99.90;;;;;;20789816;28;20896;-79
2022/12/22 15:51:04;;;;;;;0.20;0.10;;;19.70;99.90;;;;;;20808279;28;20749;-78
2022/12/22 16:01:10;;;;;;;0.20;0.10;;;18.90;99.90;;;;;;20806290;28;20755;-81
2022/12/22 16:11:14;;;;;;;0.20;0.00;;;18.50;99.90;;;;;;20804917;28;20418;-74
2022/12/22 16:21:30;;;;;;;0.20;0.03;;;18.20;99.90;;;;;;20822535;28;20398;-81
2022/12/22 16:31:34;;;;;;;0.20;0.00;;;17.80;99.90;;;;;;20794611;28;20405;-83
2022/12/22 16:41:39;;;;;;;0.20;0.00;;;17.50;99.90;;;;;;20806353;28;20696;-81
2022/12/22 16:51:48;;;;;;;0.20;0.00;;;17.30;99.90;;;;;;20789684;28;20429;-81
2022/12/22 17:01:55;;;;;;;0.20;0.00;;;16.90;99.90;;;;;;20836095;28;20400;-79
2022/12/22 17:12:00;;;;;;;0.20;0.10;;;17.00;99.90;;;;;;20887004;28;20412;-81
2022/12/22 17:22:05;;;;;;;0.20;0.03;;;17.00;99.90;;;;;;20927954;28;20425;-79
2022/12/22 17:32:13;;;;;;;0.20;0.00;;;16.90;99.90;;;;;;20909027;28;20569;-82
2022/12/22 17:42:21;;;;;;;0.20;0.00;;;16.60;99.90;;;;;;20869496;28;20740;-80
2022/12/22 17:52:26;;;;;;;0.20;0.10;;;15.60;99.90;;;;;;20869999;28;20420;-80
2022/12/22 18:02:32;;;;;;;0.20;0.00;;;15.10;99.90;;;;;;20872181;28;20408;-81
2022/12/22 18:12:36;;;;;;;0.20;0.10;;;15.10;99.90;;;;;;20870906;28;20419;-75
2022/12/22 18:22:41;;;;;;;0.20;0.10;;;14.90;99.90;;;;;;20861405;28;20439;-81
2022/12/22 18:32:46;;;;;;;0.20;0.10;;;14.90;99.90;;;;;;20882490;28;20798;-79
2022/12/22 18:42:52;;;;;;;0.20;0.10;;;14.50;99.90;;;;;;20882163;28;20404;-81
2022/12/22 18:52:58;;;;;;;0.20;0.10;;;14.40;99.90;;;;;;20896778;28;20926;-81
2022/12/22 19:03:12;;;;;;;0.20;0.10;;;14.40;99.90;;;;;;20862434;28;20414;-79
2022/12/22 19:13:21;;;;;;;0.20;0.10;;;14.40;99.90;;;;;;20878629;28;20404;-79
2022/12/22 19:23:27;;;;;;;0.20;0.10;;;14.00;99.90;;;;;;20903321;28;20419;-81
2022/12/22 19:33:41;;;;;;;0.20;0.10;;;14.00;99.90;;;;;;20900561;28;20498;-82
2022/12/22 19:43:46;;;;;;;0.20;0.10;;;14.10;99.90;;;;;;20900025;28;20542;-79
2022/12/22 19:53:50;;;;;;;0.20;0.10;;;13.60;99.90;;;;;;20860577;28;20983;-79
2022/12/22 20:03:55;;;;;;;0.20;0.10;;;13.10;99.90;;;;;;20878741;28;20411;-80
2022/12/22 20:13:59;;;;;;;0.20;0.10;;;13.30;99.90;;;;;;20878551;28;20451;-80
2022/12/22 20:24:06;;;;;;;0.20;0.10;;;12.80;99.90;;;;;;20878439;28;20408;-80
2022/12/22 20:34:10;;;;;;;0.20;0.00;;;13.30;99.90;;;;;;20893493;28;20416;-82
2022/12/22 20:44:15;;;;;;;0.20;0.10;;;13.40;99.90;;;;;;20911597;28;20461;-81
2022/12/22 20:54:19;;;;;;;0.20;0.10;;;14.80;99.90;;;;;;20910600;28;20515;-82
2022/12/22 21:04:24;;;;;;;0.20;0.10;;;14.70;99.90;;;;;;20921854;28;20422;-81
2022/12/22 21:14:28;;;;;;;0.20;0.10;;;14.90;99.90;;;;;;20909530;28;20426;-80
2022/12/22 21:24:33;;;;;;;0.20;0.00;;;14.90;99.90;;;;;;20891750;28;20482;-82
2022/12/22 21:34:37;;;;;;;0.20;0.10;;;14.80;99.90;;;;;;20889229;28;21028;-83
2022/12/22 21:44:43;;;;;;;0.20;0.00;;;14.40;99.90;;;;;;20892785;28;20392;-82
2022/12/22 21:54:47;;;;;;;0.20;0.10;;;13.50;99.90;;;;;;20886406;28;20964;-69
2022/12/22 22:04:52;;;;;;;0.20;0.10;;;13.50;99.90;;;;;;20902310;28;20403;-80
2022/12/22 22:14:59;;;;;;;0.20;0.00;;;13.80;99.90;;;;;;20885972;28;20970;-80
2022/12/22 22:25:05;;;;;;;0.20;0.10;;;13.90;99.90;;;;;;20882621;28;20463;-74
2022/12/22 22:35:10;;;;;;;0.20;0.00;;;13.60;99.90;;;;;;20880205;28;20408;-82
2022/12/22 22:45:22;;;;;;;0.20;0.08;;;13.40;99.90;;;;;;20899263;28;20400;-80
2022/12/22 22:55:26;;;;;;;2.40;2.30;;;13.20;99.90;;;;;;20880595;28;20559;-82
2022/12/22 23:05:32;;;;;;;0.20;0.00;;;12.90;99.90;;;;;;20898048;28;20761;-81
2022/12/22 23:15:35;;;;;;;0.20;0.10;;;12.90;99.90;;;;;;20899760;28;20403;-82
2022/12/22 23:25:43;;;;;;;0.20;0.10;;;14.30;99.90;;;;;;20897171;28;20411;-83
2022/12/22 23:35:49;;;;;;;0.20;0.00;;;14.10;99.90;;;;;;20878878;28;20415;-82
2022/12/22 23:45:54;;;;;;;0.20;0.00;;;13.70;99.90;;;;;;20877784;28;20408;-80
2022/12/22 23:55:58;;;;;;;0.20;0.00;;;13.90;99.90;;;;;;20861652;28;20408;-82
